createdAt,value
2017-06-14T00:02:15.102Z,12.40
2017-06-14T00:04:43.000Z,12.10
2017-06-14T00:07:10.807Z,11.17
2017-06-14T00:09:38.442Z,11.60
2017-06-14T00:12:05.985Z,12.10
2017-06-14T00:14:33.537Z,11.97
2017-06-14T00:17:01.133Z,11.30
2017-06-14T00:19:28.671Z,12.13
2017-06-14T00:21:56.199Z,12.00
2017-06-14T00:24:23.779Z,10.90
2017-06-14T00:26:51.569Z,10.77
2017-06-14T00:29:19.457Z,11.93
2017-06-14T00:31:47.062Z,11.57
2017-06-14T00:34:14.879Z,11.63
2017-06-14T00:36:42.413Z,11.17
2017-06-14T00:39:10.813Z,11.37
2017-06-14T00:41:38.354Z,11.00
2017-06-14T00:44:05.922Z,11.43
2017-06-14T00:46:33.638Z,11.70
2017-06-14T00:49:01.173Z,12.80
2017-06-14T00:51:28.737Z,13.10
2017-06-14T00:53:56.350Z,12.00
2017-06-14T00:56:23.918Z,12.40
2017-06-14T00:58:51.469Z,11.77
2017-06-14T01:01:19.056Z,11.70
2017-06-14T01:03:46.605Z,12.63
2017-06-14T01:06:14.170Z,11.80
2017-06-14T01:08:41.748Z,11.43
2017-06-14T01:11:09.370Z,12.60
2017-06-14T01:13:36.951Z,11.03
2017-06-14T01:16:04.539Z,12.07
2017-06-14T01:18:32.082Z,12.73
2017-06-14T01:20:59.670Z,12.93
2017-06-14T01:23:27.286Z,12.40
2017-06-14T01:25:54.866Z,12.70
2017-06-14T01:28:22.422Z,12.70
2017-06-14T01:30:50.044Z,12.17
2017-06-14T01:33:17.665Z,12.20
2017-06-14T01:35:45.269Z,11.90
2017-06-14T01:38:12.849Z,13.50
2017-06-14T01:40:40.448Z,12.30
2017-06-14T01:43:08.016Z,12.40
2017-06-14T01:45:35.651Z,13.30
2017-06-14T01:48:03.226Z,13.13
2017-06-14T01:50:30.857Z,11.20
2017-06-14T01:52:58.462Z,12.40
2017-06-14T01:55:26.002Z,13.13
2017-06-14T01:57:53.558Z,13.57
2017-06-14T02:00:21.154Z,12.40
2017-06-14T02:02:48.763Z,12.40
2017-06-14T02:05:16.318Z,11.93
2017-06-14T02:07:43.896Z,12.90
2017-06-14T02:10:11.434Z,13.30
2017-06-14T02:12:38.989Z,11.70
2017-06-14T02:15:06.568Z,11.70
2017-06-14T02:17:34.105Z,12.10
2017-06-14T02:20:01.646Z,11.00
2017-06-14T02:22:29.252Z,12.97
2017-06-14T02:24:56.825Z,12.90
2017-06-14T02:27:24.362Z,12.90
2017-06-14T02:29:51.942Z,11.90
2017-06-14T02:32:19.581Z,12.77
2017-06-14T02:34:47.117Z,12.17
2017-06-14T02:37:14.684Z,11.60
2017-06-14T02:39:42.285Z,11.60
2017-06-14T02:42:09.818Z,11.80
2017-06-14T02:44:37.362Z,12.10
2017-06-14T02:47:04.945Z,13.27
2017-06-14T02:49:32.486Z,12.17
2017-06-14T02:52:00.078Z,12.63
2017-06-14T02:54:27.652Z,12.23
2017-06-14T02:56:55.193Z,11.47
2017-06-14T02:59:22.729Z,12.80
2017-06-14T03:01:50.318Z,12.43
2017-06-14T03:04:17.860Z,12.57
2017-06-14T03:06:47.050Z,12.70
2017-06-14T03:09:14.643Z,12.30
2017-06-14T03:11:42.185Z,12.00
2017-06-14T03:14:09.722Z,12.07
2017-06-14T03:16:37.314Z,12.87
2017-06-14T03:19:04.916Z,12.07
2017-06-14T03:21:32.452Z,11.57
2017-06-14T03:24:00.021Z,10.77
2017-06-14T03:26:27.594Z,11.80
2017-06-14T03:28:55.170Z,12.03
2017-06-14T03:31:22.796Z,11.80
2017-06-14T03:33:50.384Z,11.63
2017-06-14T03:36:17.946Z,12.53
2017-06-14T03:38:45.542Z,12.97
2017-06-14T03:41:13.085Z,11.93
2017-06-14T03:43:40.659Z,11.90
2017-06-14T03:46:08.289Z,10.80
2017-06-14T03:48:35.828Z,11.23
2017-06-14T03:51:03.369Z,11.80
2017-06-14T03:53:30.973Z,11.63
2017-06-14T03:55:58.545Z,11.80
2017-06-14T03:58:26.322Z,11.10
2017-06-14T04:00:53.949Z,12.00
2017-06-14T04:03:21.498Z,11.93
2017-06-14T04:05:49.045Z,12.37
2017-06-14T04:08:16.642Z,12.17
2017-06-14T04:10:44.410Z,13.10
2017-06-14T04:13:11.949Z,13.23
2017-06-14T04:15:39.557Z,11.40
2017-06-14T04:18:07.091Z,12.03
2017-06-14T04:20:34.648Z,12.10
2017-06-14T04:23:02.250Z,12.30
2017-06-14T04:25:29.801Z,13.47
2017-06-14T04:27:57.362Z,17.20
2017-06-14T04:30:24.962Z,16.03
2017-06-14T04:32:52.507Z,15.50
2017-06-14T04:35:20.033Z,14.23
2017-06-14T04:37:47.681Z,13.13
2017-06-14T04:40:15.234Z,13.27
2017-06-14T04:42:42.783Z,12.13
2017-06-14T04:45:10.369Z,11.93
2017-06-14T04:47:37.905Z,11.53
2017-06-14T04:50:05.782Z,14.40
2017-06-14T04:52:33.359Z,12.93
2017-06-14T04:55:00.912Z,12.33
2017-06-14T04:57:28.453Z,15.03
2017-06-14T04:59:56.033Z,11.60
2017-06-14T05:02:23.608Z,12.00
2017-06-14T05:04:51.146Z,15.27
2017-06-14T05:07:18.682Z,12.40
2017-06-14T05:09:46.290Z,10.97
2017-06-14T05:12:13.841Z,12.47
2017-06-14T05:14:41.391Z,11.93
2017-06-14T05:17:08.965Z,10.80
2017-06-14T05:19:36.496Z,11.90
2017-06-14T05:22:04.037Z,10.70
2017-06-14T05:24:31.605Z,11.47
2017-06-14T05:26:59.394Z,12.37
2017-06-14T05:29:26.937Z,11.03
2017-06-14T05:31:54.513Z,11.17
2017-06-14T05:34:22.050Z,13.27
2017-06-14T05:36:49.608Z,12.50
2017-06-14T05:39:17.188Z,11.30
2017-06-14T05:41:44.727Z,11.17
2017-06-14T05:44:12.270Z,11.60
2017-06-14T05:46:39.854Z,10.37
2017-06-14T05:49:07.385Z,10.83
2017-06-14T05:51:34.917Z,9.97
2017-06-14T05:54:02.474Z,9.40
2017-06-14T05:56:30.014Z,10.83
2017-06-14T05:58:57.543Z,9.47
2017-06-14T06:01:25.117Z,10.47
2017-06-14T06:03:52.658Z,10.00
2017-06-14T06:06:20.202Z,10.63
2017-06-14T06:08:47.787Z,10.20
2017-06-14T06:11:15.331Z,10.30
2017-06-14T06:13:42.866Z,8.90
2017-06-14T06:16:10.438Z,10.80
2017-06-14T06:18:37.986Z,10.33
2017-06-14T06:21:05.516Z,9.50
2017-06-14T06:23:33.089Z,10.70
2017-06-14T06:26:00.642Z,10.10
2017-06-14T06:28:28.209Z,10.10
2017-06-14T06:30:55.885Z,10.10
2017-06-14T06:33:23.428Z,10.10
2017-06-14T06:35:50.965Z,10.17
2017-06-14T06:38:18.533Z,9.90
2017-06-14T06:40:46.074Z,9.10
2017-06-14T06:43:13.621Z,10.97
2017-06-14T06:45:41.210Z,10.07
2017-06-14T06:48:08.738Z,9.57
2017-06-14T06:50:36.270Z,8.50
2017-06-14T06:53:03.852Z,8.97
2017-06-14T06:55:31.394Z,7.40
2017-06-14T06:57:58.924Z,6.63
2017-06-14T07:00:26.623Z,7.20
2017-06-14T07:02:54.154Z,6.90
2017-06-14T07:05:21.682Z,7.10
2017-06-14T07:07:49.253Z,7.10
2017-06-14T07:10:16.780Z,7.17
2017-06-14T07:12:44.318Z,7.00
2017-06-14T07:15:11.890Z,8.00
2017-06-14T07:17:39.425Z,8.13
2017-06-14T07:20:06.964Z,11.07
2017-06-14T07:22:34.550Z,9.30
2017-06-14T07:25:02.075Z,7.27
2017-06-14T07:27:29.602Z,7.50
2017-06-14T07:29:57.169Z,7.97
2017-06-14T07:32:24.734Z,7.17
2017-06-14T07:34:52.278Z,8.13
2017-06-14T07:37:19.810Z,8.73
2017-06-14T07:39:47.384Z,6.50
2017-06-14T07:42:14.918Z,6.77
2017-06-14T07:44:42.456Z,6.80
2017-06-14T07:47:10.017Z,6.27
2017-06-14T07:49:37.549Z,6.63
2017-06-14T07:52:05.093Z,7.33
2017-06-14T07:54:32.666Z,7.30
2017-06-14T07:57:00.199Z,6.97
2017-06-14T07:59:27.730Z,6.10
2017-06-14T08:01:55.299Z,7.80
2017-06-14T08:04:22.827Z,5.67
2017-06-14T08:06:50.355Z,6.13
2017-06-14T08:09:17.925Z,6.00
2017-06-14T08:11:45.462Z,6.43
2017-06-14T08:14:12.995Z,6.37
2017-06-14T08:16:40.569Z,5.70
2017-06-14T08:19:08.102Z,5.43
2017-06-14T08:21:35.635Z,5.40
2017-06-14T08:24:03.205Z,5.23
2017-06-14T08:26:30.733Z,7.07
2017-06-14T08:28:58.270Z,5.80
2017-06-14T08:31:25.835Z,5.10
2017-06-14T08:33:53.372Z,5.50
2017-06-14T08:36:20.902Z,6.57
2017-06-14T08:38:48.470Z,5.20
2017-06-14T08:41:16.003Z,6.47
2017-06-14T08:43:43.541Z,5.43
2017-06-14T08:46:11.109Z,6.07
2017-06-14T08:48:38.632Z,6.53
2017-06-14T08:51:06.165Z,7.40
2017-06-14T08:53:33.733Z,6.57
2017-06-14T08:56:01.306Z,5.80
2017-06-14T08:58:28.829Z,6.33
2017-06-14T09:00:56.389Z,5.43
2017-06-14T09:03:23.913Z,5.93
2017-06-14T09:05:51.461Z,6.07
2017-06-14T09:08:19.021Z,6.53
2017-06-14T09:10:46.545Z,6.20
2017-06-14T09:13:14.078Z,6.73
2017-06-14T09:15:41.647Z,5.77
2017-06-14T09:18:09.189Z,6.40
2017-06-14T09:20:36.750Z,6.90
2017-06-14T09:23:04.313Z,6.30
2017-06-14T09:25:31.850Z,6.43
2017-06-14T09:27:59.398Z,5.50
2017-06-14T09:30:26.984Z,5.97
2017-06-14T09:32:54.518Z,6.03
2017-06-14T09:35:22.054Z,6.30
2017-06-14T09:37:49.632Z,6.30
2017-06-14T09:40:17.161Z,6.10
2017-06-14T09:42:44.694Z,5.60
2017-06-14T09:45:12.268Z,6.47
2017-06-14T09:47:39.805Z,6.40
2017-06-14T09:50:07.334Z,5.60
2017-06-14T09:52:34.913Z,5.93
2017-06-14T09:55:02.449Z,5.87
2017-06-14T09:57:29.977Z,6.20
2017-06-14T09:59:57.537Z,5.90
2017-06-14T10:02:25.126Z,5.77
2017-06-14T10:04:52.652Z,6.13
2017-06-14T10:07:20.183Z,5.57
2017-06-14T10:09:47.758Z,6.10
2017-06-14T10:12:15.303Z,6.80
2017-06-14T10:14:42.834Z,7.50
2017-06-14T10:17:10.470Z,6.37
2017-06-14T10:19:38.237Z,7.50
2017-06-14T10:22:05.834Z,5.87
2017-06-14T10:24:33.404Z,5.60
2017-06-14T10:27:00.942Z,5.10
2017-06-14T10:29:28.492Z,5.53
2017-06-14T10:31:56.050Z,6.30
2017-06-14T10:34:23.585Z,5.67
2017-06-14T10:36:51.132Z,6.00
2017-06-14T10:39:18.696Z,7.00
2017-06-14T10:41:46.217Z,6.87
2017-06-14T10:44:13.749Z,7.53
2017-06-14T10:46:41.331Z,7.27
2017-06-14T10:49:08.865Z,7.57
2017-06-14T10:51:36.413Z,8.50
2017-06-14T10:54:04.000Z,7.30
2017-06-14T10:56:31.824Z,8.60
2017-06-14T10:59:02.244Z,6.67
2017-06-14T11:01:30.282Z,7.07
2017-06-14T11:03:57.830Z,7.90
2017-06-14T11:06:25.930Z,7.20
2017-06-14T11:08:53.493Z,7.37
2017-06-14T11:11:21.024Z,7.70
2017-06-14T11:13:48.553Z,7.23
2017-06-14T11:16:16.161Z,6.97
2017-06-14T11:18:43.695Z,6.60
2017-06-14T11:21:11.600Z,5.77
2017-06-14T11:23:39.164Z,6.33
2017-06-14T11:26:06.693Z,6.40
2017-06-14T11:28:34.237Z,7.03
2017-06-14T11:31:02.062Z,6.07
2017-06-14T11:33:29.618Z,6.27
2017-06-14T11:35:57.162Z,6.93
2017-06-14T11:38:24.761Z,7.10
2017-06-14T11:40:52.293Z,6.70
2017-06-14T11:43:19.829Z,7.00
2017-06-14T11:45:47.749Z,5.80
2017-06-14T11:48:15.310Z,5.93
2017-06-14T11:50:42.841Z,5.63
2017-06-14T11:53:10.410Z,5.37
2017-06-14T11:55:38.223Z,6.37
2017-06-14T11:58:05.814Z,6.43
2017-06-14T12:00:33.389Z,5.53
2017-06-14T12:03:00.922Z,5.73
2017-06-14T12:05:28.801Z,5.70
2017-06-14T12:07:56.370Z,6.17
2017-06-14T12:10:23.897Z,6.23
2017-06-14T12:12:52.306Z,5.20
2017-06-14T12:15:19.876Z,5.43
2017-06-14T12:17:47.405Z,4.90
2017-06-14T12:20:16.250Z,4.70
2017-06-14T12:22:44.355Z,4.80
2017-06-14T12:25:11.894Z,5.37
2017-06-14T12:27:39.419Z,5.63
2017-06-14T12:30:08.237Z,5.13
2017-06-14T12:32:36.042Z,5.40
2017-06-14T12:35:03.571Z,6.10
2017-06-14T12:37:31.174Z,4.57
2017-06-14T12:39:58.955Z,6.53
2017-06-14T12:42:26.530Z,7.37
2017-06-14T12:44:54.153Z,5.53
2017-06-14T12:47:21.808Z,5.37
2017-06-14T12:49:49.582Z,5.67
2017-06-14T12:52:17.216Z,5.27
2017-06-14T12:54:45.021Z,5.30
2017-06-14T12:57:12.634Z,6.57
2017-06-14T12:59:40.986Z,5.50
2017-06-14T13:02:08.561Z,5.30
2017-06-14T13:04:36.097Z,4.93
2017-06-14T13:07:03.934Z,4.97
2017-06-14T13:09:31.577Z,5.43
2017-06-14T13:11:59.126Z,4.80
2017-06-14T13:14:27.746Z,6.13
2017-06-14T13:16:57.011Z,5.70
2017-06-14T13:19:24.933Z,4.97
2017-06-14T13:21:52.533Z,5.30
2017-06-14T13:24:20.103Z,4.73
2017-06-14T13:26:48.062Z,5.10
2017-06-14T13:29:15.675Z,5.60
2017-06-14T13:31:43.577Z,5.20
2017-06-14T13:34:11.110Z,5.53
2017-06-14T13:36:38.872Z,5.10
2017-06-14T13:56:56.229Z,5.00
2017-06-14T13:59:24.353Z,5.30
2017-06-14T14:01:51.946Z,4.93
2017-06-14T14:04:22.313Z,5.47
2017-06-14T14:06:50.340Z,5.50
2017-06-14T14:09:18.537Z,4.80
2017-06-14T14:11:46.276Z,5.70
2017-06-14T14:14:14.125Z,7.50
2017-06-14T14:16:41.734Z,8.60
2017-06-14T14:19:09.279Z,7.07
2017-06-14T14:21:37.045Z,7.97
2017-06-14T14:24:04.641Z,6.50
2017-06-14T14:26:32.206Z,5.00
2017-06-14T14:28:59.744Z,4.97
2017-06-14T14:31:27.327Z,4.87
2017-06-14T14:33:54.862Z,5.50
2017-06-14T14:36:22.459Z,5.43
2017-06-14T14:38:50.030Z,4.30
2017-06-14T14:41:17.846Z,5.60
2017-06-14T14:43:45.406Z,5.30
2017-06-14T14:46:13.011Z,5.43
2017-06-14T14:48:40.887Z,6.10
2017-06-14T14:51:08.419Z,5.97
2017-06-14T14:53:36.024Z,6.00
2017-06-14T14:56:03.937Z,5.57
2017-06-14T14:58:31.465Z,4.90
2017-06-14T15:00:59.264Z,5.30
2017-06-14T15:03:27.077Z,4.60
2017-06-14T15:05:54.617Z,5.30
2017-06-14T15:08:22.178Z,5.43
2017-06-14T15:10:49.730Z,6.63
2017-06-14T15:13:17.302Z,6.10
2017-06-14T15:15:45.700Z,5.43
2017-06-14T15:18:13.258Z,5.07
2017-06-14T15:20:40.841Z,18.20
2017-06-14T15:23:08.952Z,13.30
2017-06-14T15:25:37.529Z,10.33
2017-06-14T15:28:05.426Z,9.20
2017-06-14T15:30:33.949Z,8.07
2017-06-14T15:33:01.876Z,8.00
2017-06-14T15:35:29.663Z,6.43
2017-06-14T15:37:57.308Z,6.03
2017-06-14T15:40:25.086Z,8.47
2017-06-14T15:42:52.877Z,6.67
2017-06-14T15:45:20.485Z,7.20
2017-06-14T15:47:49.006Z,6.00
2017-06-14T15:50:16.567Z,6.03
2017-06-14T15:52:44.169Z,5.93
2017-06-14T15:55:11.745Z,7.47
2017-06-14T15:57:39.327Z,6.40
2017-06-14T16:00:07.202Z,5.13
2017-06-14T16:02:35.005Z,5.80
2017-06-14T16:05:02.605Z,6.03
2017-06-14T16:07:30.420Z,6.23
2017-06-14T16:09:57.983Z,5.80
2017-06-14T16:12:25.579Z,5.40
2017-06-14T16:14:53.418Z,5.73
2017-06-14T16:17:21.212Z,5.67
2017-06-14T16:19:48.818Z,5.40
2017-06-14T16:22:16.413Z,5.10
2017-06-14T16:24:44.178Z,6.40
2017-06-14T16:27:11.798Z,6.47
2017-06-14T16:29:40.254Z,6.53
2017-06-14T16:32:08.942Z,6.13
2017-06-14T16:34:36.790Z,5.50
2017-06-14T16:37:04.405Z,5.90
2017-06-14T16:39:32.614Z,5.43
2017-06-14T16:42:00.194Z,5.30
2017-06-14T16:44:27.765Z,5.33
2017-06-14T16:46:55.373Z,8.73
2017-06-14T16:49:23.045Z,6.80
2017-06-14T16:51:51.181Z,5.60
2017-06-14T16:54:18.784Z,5.57
2017-06-14T16:56:46.390Z,5.50
2017-06-14T16:59:14.189Z,5.87
2017-06-14T17:01:41.787Z,5.83
2017-06-14T17:04:10.037Z,5.67
2017-06-14T17:06:55.891Z,5.97
2017-06-14T17:09:31.127Z,6.50
2017-06-14T17:11:59.918Z,6.27
2017-06-14T17:14:31.093Z,5.70
2017-06-14T17:16:58.922Z,6.10
2017-06-14T17:19:30.788Z,6.23
2017-06-14T17:29:19.658Z,6.10
2017-06-14T17:31:47.250Z,6.90
2017-06-14T17:34:14.850Z,6.33
2017-06-14T17:36:42.385Z,6.73
2017-06-14T17:39:10.053Z,7.80
2017-06-14T17:41:37.628Z,7.33
2017-06-14T17:44:05.173Z,7.10
2017-06-14T17:46:32.770Z,7.60
2017-06-14T17:49:00.302Z,6.70
2017-06-14T17:51:27.852Z,6.93
2017-06-14T17:53:55.592Z,6.70
2017-06-14T17:56:23.131Z,6.20
2017-06-14T17:58:51.298Z,7.40
2017-06-14T18:01:19.245Z,7.30
2017-06-14T18:03:47.122Z,6.93
2017-06-14T18:06:15.639Z,9.43
2017-06-14T18:08:43.922Z,7.67
2017-06-14T18:11:11.702Z,7.80
2017-06-14T18:13:40.261Z,9.47
2017-06-14T18:16:08.828Z,9.37
2017-06-14T18:18:36.521Z,8.37
2017-06-14T18:21:04.319Z,8.90
2017-06-14T18:23:32.057Z,8.53
2017-06-14T18:26:00.364Z,9.03
2017-06-14T18:28:29.190Z,12.30
2017-06-14T18:30:56.813Z,9.57
2017-06-14T18:33:24.442Z,9.50
2017-06-14T18:35:53.334Z,8.87
2017-06-14T18:38:22.074Z,8.87
2017-06-14T18:40:50.705Z,8.40
2017-06-14T18:43:18.385Z,8.57
2017-06-14T18:45:46.062Z,8.70
2017-06-14T18:48:13.730Z,8.27
2017-06-14T18:50:41.325Z,8.20
2017-06-14T18:53:09.552Z,8.43
2017-06-14T18:55:37.318Z,8.20
2017-06-14T18:58:19.236Z,7.07
2017-06-14T19:00:47.982Z,6.97
2017-06-14T19:03:15.772Z,7.90
2017-06-14T19:05:43.725Z,7.70
2017-06-14T19:08:11.380Z,7.10
2017-06-14T19:10:50.248Z,6.97
2017-06-14T19:13:26.038Z,6.80
2017-06-14T19:15:54.957Z,9.63
2017-06-14T19:18:22.849Z,9.33
2017-06-14T19:20:50.525Z,11.00
2017-06-14T19:23:18.274Z,7.83
2017-06-14T19:25:48.764Z,7.27
2017-06-14T19:28:16.545Z,7.13
2017-06-14T19:30:44.145Z,6.23
2017-06-14T19:33:11.721Z,6.63
2017-06-14T19:35:39.281Z,6.90
2017-06-14T19:38:06.854Z,7.20
2017-06-14T19:40:55.390Z,6.60
2017-06-14T19:43:34.397Z,6.73
2017-06-14T19:46:15.524Z,6.53
2017-06-14T19:48:43.295Z,6.60
2017-06-14T19:53:50.742Z,5.57
2017-06-14T19:56:18.277Z,6.20
2017-06-14T19:59:04.181Z,6.20
2017-06-14T20:01:34.202Z,6.13
2017-06-14T20:04:02.005Z,6.57
2017-06-14T20:06:29.546Z,7.10
2017-06-14T20:08:57.113Z,6.80
2017-06-14T20:11:38.338Z,6.27
2017-06-14T20:14:10.797Z,6.00
2017-06-14T20:16:39.418Z,5.57
2017-06-14T20:19:08.281Z,5.60
2017-06-14T20:21:56.389Z,5.70
2017-06-14T20:24:24.129Z,5.27
2017-06-14T20:27:01.591Z,5.80
2017-06-14T20:29:47.128Z,5.60
2017-06-14T20:32:15.512Z,5.30
2017-06-14T20:34:43.053Z,5.73
2017-06-14T20:37:10.588Z,6.30
2017-06-14T20:39:38.407Z,5.03
2017-06-14T20:42:06.196Z,6.23
2017-06-14T20:44:33.741Z,6.13
2017-06-14T20:47:01.325Z,5.70
2017-06-14T20:49:28.880Z,6.10
2017-06-14T20:51:56.701Z,5.60
2017-06-14T20:54:24.264Z,6.53
2017-06-14T20:56:51.805Z,5.23
2017-06-14T20:59:19.342Z,5.53
2017-06-14T21:01:46.950Z,5.40
2017-06-14T21:04:14.494Z,5.27
2017-06-14T21:06:42.122Z,4.90
2017-06-14T21:09:10.890Z,5.10
2017-06-14T21:11:38.446Z,5.03
2017-06-14T21:14:07.173Z,5.80
2017-06-14T21:16:35.476Z,5.60
2017-06-14T21:19:03.012Z,5.50
2017-06-14T21:21:30.544Z,5.00
2017-06-14T21:23:58.144Z,4.60
2017-06-14T21:26:25.766Z,5.00
2017-06-14T21:28:53.313Z,4.80
2017-06-14T21:31:20.883Z,4.63
2017-06-14T21:33:48.446Z,4.80
2017-06-14T21:36:16.021Z,4.93
2017-06-14T21:38:43.589Z,5.00
2017-06-14T21:41:11.197Z,5.00
2017-06-14T21:43:38.770Z,4.60
2017-06-14T21:46:06.337Z,4.63
2017-06-14T21:48:33.894Z,4.73
2017-06-14T21:51:01.487Z,5.17
2017-06-14T21:53:29.115Z,4.87
2017-06-14T21:55:56.752Z,4.63
2017-06-14T21:58:24.427Z,5.60
2017-06-14T22:00:52.109Z,5.10
2017-06-14T22:03:19.677Z,4.77
2017-06-14T22:05:47.261Z,5.00
2017-06-14T22:08:14.955Z,5.33
2017-06-14T22:10:42.560Z,4.90
2017-06-14T22:13:10.138Z,4.90
2017-06-14T22:15:38.002Z,5.77
2017-06-14T22:18:05.623Z,5.57
2017-06-14T22:20:33.192Z,5.83
2017-06-14T22:23:00.872Z,5.60
2017-06-14T22:25:28.412Z,4.90
2017-06-14T22:27:55.950Z,5.87
2017-06-14T22:30:23.683Z,5.97
2017-06-14T22:32:51.243Z,5.00
2017-06-14T22:35:18.778Z,6.37
2017-06-14T22:37:46.376Z,5.47
2017-06-14T22:40:14.026Z,5.60
2017-06-14T22:42:41.656Z,5.03
2017-06-14T22:45:09.371Z,5.83
2017-06-14T22:47:37.013Z,4.87
2017-06-14T22:50:04.542Z,5.03
2017-06-14T22:52:32.113Z,4.60
2017-06-14T22:54:59.658Z,5.73
2017-06-14T22:57:27.196Z,4.97
2017-06-14T22:59:54.762Z,4.80
2017-06-14T23:02:22.352Z,5.43
2017-06-14T23:04:49.894Z,4.90
2017-06-14T23:07:17.461Z,5.27
2017-06-14T23:09:45.902Z,5.63
2017-06-14T23:12:13.476Z,4.90
2017-06-14T23:14:41.030Z,4.60
2017-06-14T23:17:08.593Z,4.70
2017-06-14T23:19:36.127Z,5.47
2017-06-14T23:22:03.681Z,4.77
2017-06-14T23:24:31.250Z,5.23
2017-06-14T23:26:58.793Z,5.50
2017-06-14T23:29:26.329Z,4.87
2017-06-14T23:31:53.896Z,5.07
2017-06-14T23:34:21.421Z,5.27
2017-06-14T23:36:48.958Z,5.00
2017-06-14T23:39:16.527Z,5.70
2017-06-14T23:41:44.061Z,4.97
2017-06-14T23:44:11.610Z,4.80
2017-06-14T23:46:39.252Z,5.30
2017-06-14T23:49:07.644Z,5.10
2017-06-14T23:51:35.231Z,5.00
2017-06-14T23:54:02.804Z,4.70
2017-06-14T23:56:30.346Z,4.60
2017-06-14T23:58:57.881Z,5.67
